createdAt,value
2018-06-24T00:00:20.464Z,1025.83
2018-06-24T00:01:20.308Z,1025.84
2018-06-24T00:02:20.415Z,1025.82
2018-06-24T00:03:20.555Z,1025.8
2018-06-24T00:04:20.380Z,1025.8
2018-06-24T00:05:20.282Z,1025.78
2018-06-24T00:06:20.520Z,1025.77
2018-06-24T00:07:20.493Z,1025.77
2018-06-24T00:08:20.656Z,1025.73
2018-06-24T00:09:20.418Z,1025.73
2018-06-24T00:10:20.428Z,1025.75
2018-06-24T00:11:20.469Z,1025.74
2018-06-24T00:12:20.357Z,1025.74
2018-06-24T00:13:20.600Z,1025.7
2018-06-24T00:14:20.623Z,1025.73
2018-06-24T00:15:20.544Z,1025.72
2018-06-24T00:16:20.416Z,1025.71
2018-06-24T00:17:20.357Z,1025.7
2018-06-24T00:18:20.361Z,1025.73
2018-06-24T00:19:20.267Z,1025.71
2018-06-24T00:20:20.337Z,1025.71
2018-06-24T00:21:20.319Z,1025.71
2018-06-24T00:22:20.246Z,1025.7
2018-06-24T00:23:20.276Z,1025.71
2018-06-24T00:24:20.270Z,1025.71
2018-06-24T00:25:20.340Z,1025.72
2018-06-24T00:26:20.510Z,1025.7
2018-06-24T00:27:20.366Z,1025.74
2018-06-24T00:28:20.461Z,1025.71
2018-06-24T00:29:20.329Z,1025.68
2018-06-24T00:30:20.584Z,1025.68
2018-06-24T00:31:20.354Z,1025.69
2018-06-24T00:32:20.285Z,1025.69
2018-06-24T00:33:20.623Z,1025.69
2018-06-24T00:34:20.484Z,1025.63
2018-06-24T00:35:20.794Z,1025.67
2018-06-24T00:36:20.608Z,1025.66
2018-06-24T00:37:20.307Z,1025.63
2018-06-24T00:38:20.598Z,1025.67
2018-06-24T00:39:20.334Z,1025.63
2018-06-24T00:40:20.594Z,1025.63
2018-06-24T00:41:20.385Z,1025.6
2018-06-24T00:42:20.364Z,1025.59
2018-06-24T00:43:20.471Z,1025.59
2018-06-24T00:44:20.533Z,1025.56
2018-06-24T00:45:20.337Z,1025.54
2018-06-24T00:46:20.346Z,1025.53
2018-06-24T00:47:20.383Z,1025.54
2018-06-24T00:48:20.388Z,1025.52
2018-06-24T00:49:20.428Z,1025.52
2018-06-24T00:50:20.375Z,1025.5
2018-06-24T00:51:20.508Z,1025.47
2018-06-24T00:52:20.361Z,1025.44
2018-06-24T00:53:20.228Z,1025.41
2018-06-24T00:54:20.412Z,1025.42
2018-06-24T00:55:20.257Z,1025.44
2018-06-24T00:56:20.412Z,1025.43
2018-06-24T00:57:20.330Z,1025.41
2018-06-24T00:58:20.509Z,1025.45
2018-06-24T00:59:20.495Z,1025.41
2018-06-24T01:00:20.329Z,1025.44
2018-06-24T01:01:20.399Z,1025.35
2018-06-24T01:02:20.307Z,1025.36
2018-06-24T01:03:20.436Z,1025.34
2018-06-24T01:04:20.239Z,1025.36
2018-06-24T01:05:20.447Z,1025.35
2018-06-24T01:06:20.273Z,1025.35
2018-06-24T01:07:20.565Z,1025.33
2018-06-24T01:08:20.311Z,1025.33
2018-06-24T01:09:20.407Z,1025.31
2018-06-24T01:10:20.586Z,1025.32
2018-06-24T01:11:20.548Z,1025.31
2018-06-24T01:12:20.432Z,1025.34
2018-06-24T01:13:20.217Z,1025.36
2018-06-24T01:14:20.487Z,1025.32
2018-06-24T01:15:20.351Z,1025.35
2018-06-24T01:16:20.602Z,1025.36
2018-06-24T01:17:20.267Z,1025.35
2018-06-24T01:18:20.328Z,1025.35
2018-06-24T01:19:20.585Z,1025.34
2018-06-24T01:20:20.591Z,1025.3
2018-06-24T01:21:20.257Z,1025.28
2018-06-24T01:22:20.315Z,1025.32
2018-06-24T01:23:20.296Z,1025.28
2018-06-24T01:24:20.469Z,1025.34
2018-06-24T01:25:20.328Z,1025.26
2018-06-24T01:26:20.588Z,1025.26
2018-06-24T01:27:20.317Z,1025.24
2018-06-24T01:28:20.582Z,1025.25
2018-06-24T01:29:20.384Z,1025.23
2018-06-24T01:30:20.540Z,1025.24
2018-06-24T01:31:20.249Z,1025.23
2018-06-24T01:32:20.375Z,1025.2
2018-06-24T01:33:20.421Z,1025.23
2018-06-24T01:34:20.354Z,1025.22
2018-06-24T01:35:20.380Z,1025.16
2018-06-24T01:36:20.492Z,1025.16
2018-06-24T01:37:20.330Z,1025.17
2018-06-24T01:38:20.446Z,1025.18
2018-06-24T01:39:20.248Z,1025.14
2018-06-24T01:40:20.262Z,1025.11
2018-06-24T01:41:20.418Z,1025.13
2018-06-24T01:42:20.307Z,1025.16
2018-06-24T01:43:20.405Z,1025.17
2018-06-24T01:44:20.554Z,1025.12
2018-06-24T01:45:20.399Z,1025.16
2018-06-24T01:46:20.357Z,1025.12
2018-06-24T01:47:20.438Z,1025.12
2018-06-24T01:48:20.451Z,1025.13
2018-06-24T01:49:20.367Z,1025.15
2018-06-24T01:50:20.217Z,1025.15
2018-06-24T01:51:20.313Z,1025.11
2018-06-24T01:52:20.300Z,1025.13
2018-06-24T01:53:20.442Z,1025.15
2018-06-24T01:54:20.628Z,1025.14
2018-06-24T01:55:20.270Z,1025.16
2018-06-24T01:56:20.382Z,1025.13
2018-06-24T01:57:20.342Z,1025.15
2018-06-24T01:58:30.367Z,1025.11
2018-06-24T01:59:20.438Z,1025.12
2018-06-24T02:00:20.279Z,1025.09
2018-06-24T02:01:20.348Z,1025.08
2018-06-24T02:02:20.389Z,1025.06
2018-06-24T02:03:20.461Z,1025.03
2018-06-24T02:04:20.407Z,1025.04
2018-06-24T02:05:20.396Z,1025.04
2018-06-24T02:06:20.572Z,1025.01
2018-06-24T02:07:20.309Z,1025.02
2018-06-24T02:08:20.479Z,1025.02
2018-06-24T02:09:20.401Z,1025.02
2018-06-24T02:10:20.421Z,1024.99
2018-06-24T02:11:20.432Z,1025.05
2018-06-24T02:12:20.298Z,1025.06
2018-06-24T02:13:20.560Z,1025.02
2018-06-24T02:14:20.584Z,1025.05
2018-06-24T02:15:20.428Z,1025.04
2018-06-24T02:16:20.308Z,1025.01
2018-06-24T02:17:20.501Z,1025.01
2018-06-24T02:18:20.580Z,1024.96
2018-06-24T02:19:20.592Z,1024.98
2018-06-24T02:20:20.908Z,1024.96
2018-06-24T02:21:20.484Z,1024.97
2018-06-24T02:22:20.467Z,1024.97
2018-06-24T02:23:20.412Z,1024.96
2018-06-24T02:24:20.315Z,1024.95
2018-06-24T02:25:20.330Z,1025.01
2018-06-24T02:26:20.728Z,1024.95
2018-06-24T02:27:20.416Z,1024.96
2018-06-24T02:28:20.568Z,1025.01
2018-06-24T02:29:20.267Z,1024.95
2018-06-24T02:30:20.573Z,1024.94
2018-06-24T02:31:20.397Z,1024.97
2018-06-24T02:32:20.453Z,1024.96
2018-06-24T02:33:20.437Z,1024.93
2018-06-24T02:34:20.383Z,1024.93
2018-06-24T02:35:20.629Z,1024.89
2018-06-24T02:36:21.084Z,1024.88
2018-06-24T02:37:20.277Z,1024.9
2018-06-24T02:38:20.486Z,1024.9
2018-06-24T02:39:20.336Z,1024.9
2018-06-24T02:40:20.644Z,1024.9
2018-06-24T02:41:20.297Z,1024.88
2018-06-24T02:42:20.603Z,1024.88
2018-06-24T02:43:20.251Z,1024.85
2018-06-24T02:44:20.420Z,1024.87
2018-06-24T02:45:20.605Z,1024.87
2018-06-24T02:46:20.664Z,1024.83
2018-06-24T02:47:20.580Z,1024.82
2018-06-24T02:48:20.297Z,1024.76
2018-06-24T02:49:20.321Z,1024.8
2018-06-24T02:50:20.380Z,1024.82
2018-06-24T02:51:20.433Z,1024.79
2018-06-24T02:52:20.250Z,1024.79
2018-06-24T02:53:20.309Z,1024.81
2018-06-24T02:54:20.385Z,1024.8
2018-06-24T02:55:20.262Z,1024.79
2018-06-24T02:56:20.565Z,1024.84
2018-06-24T02:57:20.592Z,1024.83
2018-06-24T02:58:20.436Z,1024.81
2018-06-24T02:59:20.301Z,1024.85
2018-06-24T03:00:20.302Z,1024.81
2018-06-24T03:01:20.277Z,1024.77
2018-06-24T03:02:20.450Z,1024.78
2018-06-24T03:03:20.385Z,1024.73
2018-06-24T03:04:20.535Z,1024.75
2018-06-24T03:05:20.327Z,1024.74
2018-06-24T03:06:20.351Z,1024.73
2018-06-24T03:07:20.315Z,1024.73
2018-06-24T03:08:20.500Z,1024.7
2018-06-24T03:09:20.428Z,1024.73
2018-06-24T03:10:20.300Z,1024.71
2018-06-24T03:11:20.382Z,1024.72
2018-06-24T03:12:20.429Z,1024.68
2018-06-24T03:13:20.247Z,1024.71
2018-06-24T03:14:20.394Z,1024.71
2018-06-24T03:15:20.452Z,1024.77
2018-06-24T03:16:20.326Z,1024.73
2018-06-24T03:17:20.335Z,1024.73
2018-06-24T03:18:20.297Z,1024.74
2018-06-24T03:19:20.167Z,1024.79
2018-06-24T03:20:20.316Z,1024.8
2018-06-24T03:21:20.376Z,1024.78
2018-06-24T03:22:20.509Z,1024.78
2018-06-24T03:23:20.528Z,1024.81
2018-06-24T03:24:20.263Z,1024.81
2018-06-24T03:25:20.369Z,1024.77
2018-06-24T03:26:20.243Z,1024.77
2018-06-24T03:27:20.430Z,1024.8
2018-06-24T03:28:20.333Z,1024.8
2018-06-24T03:29:20.605Z,1024.79
2018-06-24T03:30:20.304Z,1024.81
2018-06-24T03:31:20.284Z,1024.8
2018-06-24T03:32:20.243Z,1024.83
2018-06-24T03:33:20.341Z,1024.78
2018-06-24T03:34:20.621Z,1024.76
2018-06-24T03:35:20.419Z,1024.78
2018-06-24T03:36:20.544Z,1024.78
2018-06-24T03:37:20.194Z,1024.77
2018-06-24T03:38:20.275Z,1024.77
2018-06-24T03:39:20.280Z,1024.72
2018-06-24T03:40:20.443Z,1024.74
2018-06-24T03:41:20.460Z,1024.72
2018-06-24T03:42:20.261Z,1024.71
2018-06-24T03:43:20.464Z,1024.71
2018-06-24T03:44:20.409Z,1024.73
2018-06-24T03:45:20.444Z,1024.74
2018-06-24T03:46:20.213Z,1024.8
2018-06-24T03:47:20.244Z,1024.8
2018-06-24T03:48:20.417Z,1024.81
2018-06-24T03:49:20.366Z,1024.86
2018-06-24T03:50:20.373Z,1024.85
2018-06-24T03:51:20.581Z,1024.89
2018-06-24T03:52:20.454Z,1024.87
2018-06-24T03:53:20.429Z,1024.88
2018-06-24T03:54:20.325Z,1024.89
2018-06-24T03:55:20.226Z,1024.87
2018-06-24T03:56:20.328Z,1024.88
2018-06-24T03:57:20.502Z,1024.9
2018-06-24T03:58:20.381Z,1024.85
2018-06-24T03:59:20.607Z,1024.92
2018-06-24T04:00:20.559Z,1024.89
2018-06-24T04:01:20.325Z,1024.92
2018-06-24T04:02:20.274Z,1024.95
2018-06-24T04:03:20.335Z,1024.93
2018-06-24T04:04:20.313Z,1024.95
2018-06-24T04:05:20.518Z,1024.93
2018-06-24T04:06:20.353Z,1024.89
2018-06-24T04:07:20.574Z,1024.89
2018-06-24T04:08:20.411Z,1024.88
2018-06-24T04:09:20.331Z,1024.9
2018-06-24T04:10:20.590Z,1024.93
2018-06-24T04:11:20.489Z,1024.91
2018-06-24T04:12:20.405Z,1024.95
2018-06-24T04:13:20.225Z,1024.96
2018-06-24T04:14:20.411Z,1025
2018-06-24T04:15:20.255Z,1025
2018-06-24T04:16:20.589Z,1024.95
2018-06-24T04:17:20.458Z,1024.94
2018-06-24T04:18:20.382Z,1024.93
2018-06-24T04:19:20.425Z,1024.9
2018-06-24T04:20:20.431Z,1024.89
2018-06-24T04:21:20.299Z,1024.92
2018-06-24T04:22:30.320Z,1024.92
2018-06-24T04:23:20.460Z,1024.86
2018-06-24T04:24:20.291Z,1024.87
2018-06-24T04:25:20.425Z,1024.88
2018-06-24T04:26:20.410Z,1024.89
2018-06-24T04:27:20.279Z,1024.91
2018-06-24T04:28:20.448Z,1024.9
2018-06-24T04:29:20.388Z,1024.87
2018-06-24T04:30:20.314Z,1024.87
2018-06-24T04:31:20.264Z,1024.87
2018-06-24T04:32:20.446Z,1024.82
2018-06-24T04:33:20.273Z,1024.83
2018-06-24T04:34:20.578Z,1024.88
2018-06-24T04:35:20.379Z,1024.88
2018-06-24T04:36:20.561Z,1024.86
2018-06-24T04:37:20.312Z,1024.88
2018-06-24T04:38:20.187Z,1024.84
2018-06-24T04:39:20.520Z,1024.86
2018-06-24T04:40:20.229Z,1024.86
2018-06-24T04:41:20.455Z,1024.86
2018-06-24T04:42:20.341Z,1024.91
2018-06-24T04:43:20.400Z,1024.87
2018-06-24T04:44:20.251Z,1024.88
2018-06-24T04:45:20.568Z,1024.9
2018-06-24T04:46:20.404Z,1024.92
2018-06-24T04:47:20.370Z,1024.87
2018-06-24T04:48:20.296Z,1024.91
2018-06-24T04:49:20.239Z,1024.94
2018-06-24T04:50:20.278Z,1024.92
2018-06-24T04:51:20.492Z,1024.93
2018-06-24T04:52:20.641Z,1024.92
2018-06-24T04:53:20.205Z,1024.93
2018-06-24T04:54:20.256Z,1024.94
2018-06-24T04:55:20.316Z,1024.88
2018-06-24T04:56:20.444Z,1024.9
2018-06-24T04:57:20.310Z,1024.91
2018-06-24T04:58:20.251Z,1024.89
2018-06-24T04:59:20.399Z,1024.84
2018-06-24T05:00:20.378Z,1024.87
2018-06-24T05:01:20.574Z,1024.84
2018-06-24T05:02:20.204Z,1024.77
2018-06-24T05:03:20.372Z,1024.79
2018-06-24T05:04:20.256Z,1024.83
2018-06-24T05:05:20.451Z,1024.82
2018-06-24T05:06:20.496Z,1024.83
2018-06-24T05:07:20.387Z,1024.83
2018-06-24T05:08:20.628Z,1024.83
2018-06-24T05:09:20.463Z,1024.86
2018-06-24T05:10:20.354Z,1024.85
2018-06-24T05:11:20.227Z,1024.86
2018-06-24T05:12:20.592Z,1024.8
2018-06-24T05:13:20.329Z,1024.8
2018-06-24T05:14:20.326Z,1024.79
2018-06-24T05:15:20.454Z,1024.83
2018-06-24T05:16:20.469Z,1024.84
2018-06-24T05:17:20.440Z,1024.86
2018-06-24T05:18:20.257Z,1024.83
2018-06-24T05:19:20.193Z,1024.86
2018-06-24T05:20:20.176Z,1024.85
2018-06-24T05:21:20.432Z,1024.84
2018-06-24T05:22:20.255Z,1024.76
2018-06-24T05:23:20.304Z,1024.8
2018-06-24T05:24:20.172Z,1024.79
2018-06-24T05:25:20.517Z,1024.8
2018-06-24T05:26:20.366Z,1024.77
2018-06-24T05:27:20.420Z,1024.79
2018-06-24T05:28:20.259Z,1024.81
2018-06-24T05:29:20.213Z,1024.8
2018-06-24T05:30:20.265Z,1024.81
2018-06-24T05:31:20.406Z,1024.82
2018-06-24T05:32:20.460Z,1024.78
2018-06-24T05:33:20.262Z,1024.77
2018-06-24T05:34:20.183Z,1024.76
2018-06-24T05:35:20.317Z,1024.77
2018-06-24T05:36:20.374Z,1024.76
2018-06-24T05:37:20.372Z,1024.76
2018-06-24T05:38:20.146Z,1024.73
2018-06-24T05:39:20.359Z,1024.76
2018-06-24T05:40:20.456Z,1024.74
2018-06-24T05:41:20.528Z,1024.78
2018-06-24T05:42:20.359Z,1024.78
2018-06-24T05:43:20.287Z,1024.73
2018-06-24T05:44:20.428Z,1024.75
2018-06-24T05:45:20.241Z,1024.8
2018-06-24T05:46:20.383Z,1024.77
2018-06-24T05:47:20.233Z,1024.79
2018-06-24T05:48:20.381Z,1024.84
2018-06-24T05:49:20.201Z,1024.8
2018-06-24T05:50:20.278Z,1024.81
2018-06-24T05:51:20.328Z,1024.82
2018-06-24T05:52:20.370Z,1024.84
2018-06-24T05:53:20.210Z,1024.82
2018-06-24T05:54:20.360Z,1024.82
2018-06-24T05:55:20.651Z,1024.82
2018-06-24T05:56:20.166Z,1024.83
2018-06-24T05:57:20.169Z,1024.79
2018-06-24T05:58:20.382Z,1024.85
2018-06-24T05:59:20.354Z,1024.84
2018-06-24T06:00:20.385Z,1024.84
2018-06-24T06:01:20.433Z,1024.86
2018-06-24T06:02:20.247Z,1024.87
2018-06-24T06:03:20.358Z,1024.85
2018-06-24T06:04:20.389Z,1024.87
2018-06-24T06:05:20.248Z,1024.89
2018-06-24T06:06:20.291Z,1024.88
2018-06-24T06:07:20.418Z,1024.89
2018-06-24T06:08:20.453Z,1024.89
2018-06-24T06:09:20.294Z,1024.89
2018-06-24T06:10:20.678Z,1024.91
2018-06-24T06:11:20.412Z,1024.88
2018-06-24T06:12:20.309Z,1024.88
2018-06-24T06:13:20.339Z,1024.86
2018-06-24T06:14:20.188Z,1024.89
2018-06-24T06:15:20.209Z,1024.94
2018-06-24T06:16:20.267Z,1024.93
2018-06-24T06:17:20.239Z,1024.94
2018-06-24T06:18:20.246Z,1024.94
2018-06-24T06:19:20.398Z,1024.95
2018-06-24T06:20:20.341Z,1024.94
2018-06-24T06:21:20.281Z,1024.9
2018-06-24T06:22:20.331Z,1024.92
2018-06-24T06:23:20.204Z,1024.94
2018-06-24T06:24:20.407Z,1024.9
2018-06-24T06:25:20.403Z,1024.96
2018-06-24T06:26:20.183Z,1024.96
2018-06-24T06:27:20.270Z,1024.94
2018-06-24T06:28:20.199Z,1024.97
2018-06-24T06:29:20.369Z,1024.96
2018-06-24T06:30:21.575Z,1024.95
2018-06-24T06:31:20.188Z,1024.93
2018-06-24T06:32:20.304Z,1024.92
2018-06-24T06:33:20.316Z,1024.93
2018-06-24T06:34:20.423Z,1024.9
2018-06-24T06:35:20.264Z,1024.92
2018-06-24T06:36:20.281Z,1024.9
2018-06-24T06:37:20.334Z,1024.85
2018-06-24T06:38:20.401Z,1024.85
2018-06-24T06:39:20.333Z,1024.86
2018-06-24T06:40:20.398Z,1024.82
2018-06-24T06:41:20.198Z,1024.8
2018-06-24T06:42:20.296Z,1024.75
2018-06-24T06:43:20.280Z,1024.76
2018-06-24T06:44:20.273Z,1024.76
2018-06-24T06:45:20.844Z,1024.75
2018-06-24T06:46:20.328Z,1024.79
2018-06-24T06:47:20.276Z,1024.78
2018-06-24T06:48:20.353Z,1024.79
2018-06-24T06:49:20.295Z,1024.78
2018-06-24T06:50:20.264Z,1024.8
2018-06-24T06:51:20.274Z,1024.81
2018-06-24T06:52:20.376Z,1024.77
2018-06-24T06:53:20.283Z,1024.74
2018-06-24T06:54:20.343Z,1024.82
2018-06-24T06:55:20.415Z,1024.78
2018-06-24T06:56:20.281Z,1024.82
2018-06-24T06:57:20.291Z,1024.78
2018-06-24T06:58:20.383Z,1024.8
2018-06-24T06:59:20.301Z,1024.79
2018-06-24T07:00:20.316Z,1024.8
2018-06-24T07:01:20.641Z,1024.76
2018-06-24T07:02:20.640Z,1024.79
2018-06-24T07:03:20.648Z,1024.77
2018-06-24T07:04:20.332Z,1024.81
2018-06-24T07:05:20.656Z,1024.77
2018-06-24T07:06:20.551Z,1024.79
2018-06-24T07:07:20.418Z,1024.81
2018-06-24T07:08:20.412Z,1024.8
2018-06-24T07:09:20.370Z,1024.78
2018-06-24T07:10:20.557Z,1024.8
2018-06-24T07:11:20.389Z,1024.8
2018-06-24T07:12:20.387Z,1024.76
2018-06-24T07:13:20.702Z,1024.79
2018-06-24T07:14:21.361Z,1024.78
2018-06-24T07:15:20.411Z,1024.79
2018-06-24T07:16:20.415Z,1024.8
2018-06-24T07:17:20.349Z,1024.82
2018-06-24T07:18:20.434Z,1024.8
2018-06-24T07:19:20.428Z,1024.8
2018-06-24T07:20:20.376Z,1024.74
2018-06-24T07:21:20.451Z,1024.73
2018-06-24T07:22:20.415Z,1024.7
2018-06-24T07:23:20.561Z,1024.71
2018-06-24T07:24:20.468Z,1024.67
2018-06-24T07:25:20.468Z,1024.69
2018-06-24T07:26:20.477Z,1024.7
2018-06-24T07:27:20.482Z,1024.68
2018-06-24T07:28:20.447Z,1024.68
2018-06-24T07:29:20.679Z,1024.69
2018-06-24T07:30:20.495Z,1024.64
2018-06-24T07:31:20.438Z,1024.62
2018-06-24T07:32:20.508Z,1024.68
2018-06-24T07:33:20.788Z,1024.68
2018-06-24T07:34:20.612Z,1024.67
2018-06-24T07:35:20.465Z,1024.71
2018-06-24T07:36:20.496Z,1024.73
2018-06-24T07:37:20.305Z,1024.66
2018-06-24T07:38:20.310Z,1024.67
2018-06-24T07:39:20.799Z,1024.69
2018-06-24T07:40:20.312Z,1024.69
2018-06-24T07:41:20.351Z,1024.66
2018-06-24T07:42:20.530Z,1024.67
2018-06-24T07:43:20.511Z,1024.64
2018-06-24T07:44:20.300Z,1024.65
2018-06-24T07:45:20.565Z,1024.67
2018-06-24T07:46:20.532Z,1024.67
2018-06-24T07:47:20.540Z,1024.67
2018-06-24T07:48:20.547Z,1024.65
2018-06-24T07:49:20.414Z,1024.64
2018-06-24T07:50:20.898Z,1024.66
2018-06-24T07:51:20.613Z,1024.59
2018-06-24T07:52:20.572Z,1024.65
2018-06-24T07:53:20.381Z,1024.65
2018-06-24T07:54:20.595Z,1024.63
2018-06-24T07:55:20.459Z,1024.64
2018-06-24T07:56:20.377Z,1024.59
2018-06-24T07:57:20.831Z,1024.61
2018-06-24T07:58:20.616Z,1024.63
2018-06-24T07:59:20.328Z,1024.63
2018-06-24T08:00:20.449Z,1024.59
2018-06-24T08:01:20.649Z,1024.63
2018-06-24T08:02:20.162Z,1024.59
2018-06-24T08:03:20.443Z,1024.59
2018-06-24T08:04:20.738Z,1024.59
2018-06-24T08:05:20.548Z,1024.62
2018-06-24T08:06:20.246Z,1024.62
2018-06-24T08:07:20.460Z,1024.65
2018-06-24T08:08:20.441Z,1024.64
2018-06-24T08:09:20.737Z,1024.61
2018-06-24T08:10:20.786Z,1024.67
2018-06-24T08:11:20.375Z,1024.68
2018-06-24T08:12:20.495Z,1024.67
2018-06-24T08:13:20.247Z,1024.64
2018-06-24T08:14:20.274Z,1024.68
2018-06-24T08:15:20.499Z,1024.69
2018-06-24T08:16:20.206Z,1024.69
2018-06-24T08:17:20.479Z,1024.69
2018-06-24T08:18:20.188Z,1024.67
2018-06-24T08:19:20.484Z,1024.69
2018-06-24T08:20:20.241Z,1024.65
2018-06-24T08:21:20.253Z,1024.7
2018-06-24T08:22:20.273Z,1024.69
2018-06-24T08:23:20.245Z,1024.78
2018-06-24T08:24:20.235Z,1024.73
2018-06-24T08:25:20.124Z,1024.76
2018-06-24T08:26:20.328Z,1024.72
2018-06-24T08:27:20.484Z,1024.73
2018-06-24T08:28:20.308Z,1024.71
2018-06-24T08:29:20.200Z,1024.71
2018-06-24T08:30:20.376Z,1024.75
2018-06-24T08:31:20.288Z,1024.71
2018-06-24T08:32:20.333Z,1024.73
2018-06-24T08:33:20.594Z,1024.72
2018-06-24T08:34:20.330Z,1024.67
2018-06-24T08:35:20.302Z,1024.68
2018-06-24T08:36:20.221Z,1024.62
2018-06-24T08:37:20.357Z,1024.63
2018-06-24T08:38:45.358Z,1024.62
2018-06-24T08:39:20.632Z,1024.61
2018-06-24T08:40:20.237Z,1024.57
2018-06-24T08:41:20.307Z,1024.58
2018-06-24T08:42:20.181Z,1024.62
2018-06-24T08:43:20.509Z,1024.58
2018-06-24T08:44:20.356Z,1024.59
2018-06-24T08:45:20.459Z,1024.56
2018-06-24T08:46:20.445Z,1024.6
2018-06-24T08:47:20.485Z,1024.58
2018-06-24T08:48:20.325Z,1024.6
2018-06-24T08:49:20.341Z,1024.6
2018-06-24T08:50:20.258Z,1024.65
2018-06-24T08:51:20.396Z,1024.68
2018-06-24T08:52:20.308Z,1024.69
2018-06-24T08:53:20.184Z,1024.65
2018-06-24T08:54:20.419Z,1024.61
2018-06-24T08:55:20.537Z,1024.62
2018-06-24T08:56:20.198Z,1024.59
2018-06-24T08:57:20.421Z,1024.53
2018-06-24T08:58:20.424Z,1024.56
2018-06-24T08:59:20.235Z,1024.54
2018-06-24T09:00:20.263Z,1024.53
2018-06-24T09:01:20.388Z,1024.53
2018-06-24T09:02:20.293Z,1024.56
2018-06-24T09:03:20.454Z,1024.61
2018-06-24T09:04:20.489Z,1024.55
2018-06-24T09:05:20.335Z,1024.57
2018-06-24T09:06:20.295Z,1024.56
2018-06-24T09:07:20.410Z,1024.57
2018-06-24T09:08:20.233Z,1024.55
2018-06-24T09:09:20.341Z,1024.57
2018-06-24T09:10:20.259Z,1024.55
2018-06-24T09:11:20.250Z,1024.55
2018-06-24T09:12:20.314Z,1024.53
2018-06-24T09:13:20.329Z,1024.53
2018-06-24T09:14:20.480Z,1024.51
2018-06-24T09:15:20.202Z,1024.51
2018-06-24T09:16:20.261Z,1024.54
2018-06-24T09:17:20.226Z,1024.54
2018-06-24T09:18:20.447Z,1024.52
2018-06-24T09:19:20.234Z,1024.55
2018-06-24T09:20:20.380Z,1024.57
2018-06-24T09:21:20.621Z,1024.58
2018-06-24T09:22:20.468Z,1024.56
2018-06-24T09:23:20.322Z,1024.54
2018-06-24T09:24:20.258Z,1024.53
2018-06-24T09:25:20.537Z,1024.59
2018-06-24T09:26:20.662Z,1024.56
2018-06-24T09:27:20.397Z,1024.47
2018-06-24T09:28:20.272Z,1024.49
2018-06-24T09:29:20.355Z,1024.51
2018-06-24T09:30:20.290Z,1024.52
2018-06-24T09:31:20.306Z,1024.51
2018-06-24T09:32:20.317Z,1024.48
2018-06-24T09:33:20.324Z,1024.46
2018-06-24T09:34:20.487Z,1024.46
2018-06-24T09:35:20.373Z,1024.42
2018-06-24T09:36:20.380Z,1024.41
2018-06-24T09:37:20.338Z,1024.49
2018-06-24T09:38:20.444Z,1024.44
2018-06-24T09:39:20.388Z,1024.44
2018-06-24T09:40:20.359Z,1024.42
2018-06-24T09:41:20.407Z,1024.44
2018-06-24T09:42:20.504Z,1024.4
2018-06-24T09:43:20.549Z,1024.44
2018-06-24T09:44:20.322Z,1024.39
2018-06-24T09:45:20.391Z,1024.39
2018-06-24T09:46:20.516Z,1024.38
2018-06-24T09:47:20.413Z,1024.41
2018-06-24T09:48:20.411Z,1024.36
2018-06-24T09:49:20.420Z,1024.39
2018-06-24T09:50:20.408Z,1024.39
2018-06-24T09:51:20.452Z,1024.39
2018-06-24T09:52:20.382Z,1024.36
2018-06-24T09:53:20.426Z,1024.36
2018-06-24T09:54:20.441Z,1024.37
2018-06-24T09:55:20.618Z,1024.37
2018-06-24T09:56:20.563Z,1024.39
2018-06-24T09:57:20.479Z,1024.36
2018-06-24T09:58:20.470Z,1024.37
2018-06-24T09:59:20.486Z,1024.37
2018-06-24T10:00:20.483Z,1024.35
2018-06-24T10:01:20.431Z,1024.34
2018-06-24T10:02:20.521Z,1024.34
2018-06-24T10:03:20.499Z,1024.34
2018-06-24T10:04:20.267Z,1024.34
2018-06-24T10:05:20.519Z,1024.32
2018-06-24T10:06:20.544Z,1024.35
2018-06-24T10:07:20.259Z,1024.34
2018-06-24T10:08:20.507Z,1024.34
2018-06-24T10:09:20.333Z,1024.36
2018-06-24T10:10:20.525Z,1024.32
2018-06-24T10:11:20.308Z,1024.24
2018-06-24T10:12:20.306Z,1024.26
2018-06-24T10:13:20.294Z,1024.27
2018-06-24T10:14:20.556Z,1024.25
2018-06-24T10:15:20.307Z,1024.25
2018-06-24T10:16:20.335Z,1024.23
2018-06-24T10:17:20.553Z,1024.24
2018-06-24T10:18:20.379Z,1024.23
2018-06-24T10:19:20.680Z,1024.26
2018-06-24T10:20:21.600Z,1024.21
2018-06-24T10:21:20.068Z,1024.23
2018-06-24T10:22:20.392Z,1024.18
2018-06-24T10:23:20.357Z,1024.22
2018-06-24T10:24:20.391Z,1024.17
2018-06-24T10:25:20.678Z,1024.2
2018-06-24T10:26:20.307Z,1024.18
2018-06-24T10:27:20.441Z,1024.18
2018-06-24T10:28:20.432Z,1024.18
2018-06-24T10:29:20.640Z,1024.13
2018-06-24T10:30:20.110Z,1024.1
2018-06-24T10:31:20.459Z,1024.1
2018-06-24T10:32:20.711Z,1024.1
2018-06-24T10:33:20.438Z,1024.09
2018-06-24T10:34:20.423Z,1024.07
2018-06-24T10:35:20.732Z,1024.08
2018-06-24T10:36:20.393Z,1024.1
2018-06-24T10:37:20.179Z,1024.06
2018-06-24T10:38:20.472Z,1024.07
2018-06-24T10:39:20.156Z,1024.1
2018-06-24T10:40:20.451Z,1024.07
2018-06-24T10:41:20.146Z,1024.12
2018-06-24T10:42:20.205Z,1024.1
2018-06-24T10:43:20.774Z,1024.13
2018-06-24T10:44:20.152Z,1024.1
2018-06-24T10:45:20.494Z,1024.06
2018-06-24T10:46:20.463Z,1024.07
2018-06-24T10:47:20.503Z,1024.09
2018-06-24T10:48:20.241Z,1024.06
2018-06-24T10:49:20.225Z,1024.06
2018-06-24T10:50:20.112Z,1024.05
2018-06-24T10:51:20.462Z,1024.01
2018-06-24T10:52:20.170Z,1024.06
2018-06-24T10:53:20.388Z,1024.07
2018-06-24T10:54:20.296Z,1024.09
2018-06-24T10:55:20.485Z,1024.02
2018-06-24T10:56:20.184Z,1024.09
2018-06-24T10:57:20.283Z,1024.07
2018-06-24T10:58:20.543Z,1024.03
2018-06-24T10:59:20.063Z,1024.05
2018-06-24T11:00:20.151Z,1023.99
2018-06-24T11:01:20.268Z,1023.96
2018-06-24T11:02:20.722Z,1023.98
2018-06-24T11:03:20.514Z,1024
2018-06-24T11:04:20.266Z,1024
2018-06-24T11:05:20.115Z,1024.01
2018-06-24T11:06:20.274Z,1024
2018-06-24T11:07:20.480Z,1023.98
2018-06-24T11:08:20.130Z,1023.99
2018-06-24T11:09:20.228Z,1023.97
2018-06-24T11:10:20.291Z,1023.98
2018-06-24T11:11:20.394Z,1024.02
2018-06-24T11:12:20.353Z,1024.04
2018-06-24T11:13:20.486Z,1024.03
2018-06-24T11:14:20.275Z,1023.96
2018-06-24T11:15:20.346Z,1023.96
2018-06-24T11:16:20.170Z,1023.93
2018-06-24T11:17:20.128Z,1023.97
2018-06-24T11:18:20.306Z,1023.89
2018-06-24T11:19:20.218Z,1023.89
2018-06-24T11:20:20.098Z,1023.88
2018-06-24T11:21:20.148Z,1023.85
2018-06-24T11:22:20.229Z,1023.92
2018-06-24T11:23:20.268Z,1023.89
2018-06-24T11:24:20.321Z,1023.83
2018-06-24T11:25:20.247Z,1023.86
2018-06-24T11:26:20.085Z,1023.81
2018-06-24T11:27:20.219Z,1023.8
2018-06-24T11:28:20.237Z,1023.72
2018-06-24T11:29:20.132Z,1023.76
2018-06-24T11:30:20.284Z,1023.68
2018-06-24T11:31:20.082Z,1023.71
2018-06-24T11:32:20.298Z,1023.71
2018-06-24T11:33:20.303Z,1023.72
2018-06-24T11:34:20.214Z,1023.68
2018-06-24T11:35:20.120Z,1023.66
2018-06-24T11:36:20.349Z,1023.67
2018-06-24T11:37:20.386Z,1023.69
2018-06-24T11:38:20.700Z,1023.66
2018-06-24T11:39:20.325Z,1023.64
2018-06-24T11:40:20.378Z,1023.61
2018-06-24T11:41:20.456Z,1023.63
2018-06-24T11:42:20.320Z,1023.61
2018-06-24T11:43:20.300Z,1023.57
2018-06-24T11:44:20.090Z,1023.52
2018-06-24T11:45:20.353Z,1023.57
2018-06-24T11:46:20.317Z,1023.54
2018-06-24T11:47:20.349Z,1023.55
2018-06-24T11:48:20.178Z,1023.54
2018-06-24T11:49:20.412Z,1023.53
2018-06-24T11:50:20.385Z,1023.51
2018-06-24T11:51:20.576Z,1023.5
2018-06-24T11:52:20.395Z,1023.49
2018-06-24T11:53:20.189Z,1023.5
2018-06-24T11:54:20.372Z,1023.49
2018-06-24T11:55:20.201Z,1023.5
2018-06-24T11:56:20.360Z,1023.45
2018-06-24T11:57:20.267Z,1023.41
2018-06-24T11:58:20.339Z,1023.41
2018-06-24T11:59:20.250Z,1023.43
2018-06-24T12:00:20.268Z,1023.41
2018-06-24T12:01:20.308Z,1023.34
2018-06-24T12:02:20.266Z,1023.39
2018-06-24T12:03:20.380Z,1023.41
2018-06-24T12:04:20.237Z,1023.42
2018-06-24T12:05:20.463Z,1023.42
2018-06-24T12:06:20.263Z,1023.41
2018-06-24T12:07:20.259Z,1023.43
2018-06-24T12:08:20.309Z,1023.37